sensor_id;sensor_type;location;lat;lon;timestamp;temperature;humidity
5576;DHT22;2810;50.134;8.626;2022-12-10T00:01:36;1.30;99.90
5576;DHT22;2810;50.134;8.626;2022-12-10T00:04:02;1.20;99.90
5576;DHT22;2810;50.134;8.626;2022-12-10T00:06:29;1.20;99.90
5576;DHT22;2810;50.134;8.626;2022-12-10T00:08:55;1.20;99.90
5576;DHT22;2810;50.134;8.626;2022-12-10T00:11:21;1.30;99.90
5576;DHT22;2810;50.134;8.626;2022-12-10T00:13:47;1.20;99.90
5576;DHT22;2810;50.134;8.626;2022-12-10T00:16:14;1.80;99.90
5576;DHT22;2810;50.134;8.626;2022-12-10T00:18:40;1.20;99.90
5576;DHT22;2810;50.134;8.626;2022-12-10T00:21:06;1.10;99.90
5576;DHT22;2810;50.134;8.626;2022-12-10T00:23:32;1.10;99.90
5576;DHT22;2810;50.134;8.626;2022-12-10T00:26:02;1.10;99.90
5576;DHT22;2810;50.134;8.626;2022-12-10T00:28:27;1.10;99.90
5576;DHT22;2810;50.134;8.626;2022-12-10T00:30:52;1.80;99.90
5576;DHT22;2810;50.134;8.626;2022-12-10T00:33:18;1.10;99.90
5576;DHT22;2810;50.134;8.626;2022-12-10T00:35:43;1.10;99.90
5576;DHT22;2810;50.134;8.626;2022-12-10T00:38:09;1.00;99.90
5576;DHT22;2810;50.134;8.626;2022-12-10T00:40:34;1.00;99.90
5576;DHT22;2810;50.134;8.626;2022-12-10T00:43:00;1.00;99.90
5576;DHT22;2810;50.134;8.626;2022-12-10T00:45:26;1.10;99.90
5576;DHT22;2810;50.134;8.626;2022-12-10T00:47:51;1.70;99.90
5576;DHT22;2810;50.134;8.626;2022-12-10T00:50:17;1.10;99.90
5576;DHT22;2810;50.134;8.626;2022-12-10T00:52:42;1.00;99.90
5576;DHT22;2810;50.134;8.626;2022-12-10T00:55:08;1.00;99.90
5576;DHT22;2810;50.134;8.626;2022-12-10T00:57:33;1.00;99.90
5576;DHT22;2810;50.134;8.626;2022-12-10T00:59:59;1.00;99.90
5576;DHT22;2810;50.134;8.626;2022-12-10T01:02:24;1.00;99.90
5576;DHT22;2810;50.134;8.626;2022-12-10T01:04:53;1.00;99.90
5576;DHT22;2810;50.134;8.626;2022-12-10T01:07:19;1.00;99.90
5576;DHT22;2810;50.134;8.626;2022-12-10T01:09:44;1.70;99.90
5576;DHT22;2810;50.134;8.626;2022-12-10T01:12:10;1.00;99.90
5576;DHT22;2810;50.134;8.626;2022-12-10T01:14:35;0.90;99.90
5576;DHT22;2810;50.134;8.626;2022-12-10T01:17:02;0.90;99.90
5576;DHT22;2810;50.134;8.626;2022-12-10T01:19:28;1.10;99.90
5576;DHT22;2810;50.134;8.626;2022-12-10T01:21:55;1.40;99.90
5576;DHT22;2810;50.134;8.626;2022-12-10T01:24:21;0.90;99.90
5576;DHT22;2810;50.134;8.626;2022-12-10T01:26:46;0.80;99.90
5576;DHT22;2810;50.134;8.626;2022-12-10T01:29:12;0.80;99.90
5576;DHT22;2810;50.134;8.626;2022-12-10T01:31:37;0.80;99.90
5576;DHT22;2810;50.134;8.626;2022-12-10T01:34:04;0.80;99.90
5576;DHT22;2810;50.134;8.626;2022-12-10T01:36:35;0.90;99.90
5576;DHT22;2810;50.134;8.626;2022-12-10T01:39:01;0.90;99.90
5576;DHT22;2810;50.134;8.626;2022-12-10T01:41:32;1.50;99.90
5576;DHT22;2810;50.134;8.626;2022-12-10T01:44:02;0.90;99.90
5576;DHT22;2810;50.134;8.626;2022-12-10T01:46:29;0.80;99.90
5576;DHT22;2810;50.134;8.626;2022-12-10T01:48:56;0.80;99.90
5576;DHT22;2810;50.134;8.626;2022-12-10T01:51:22;0.80;99.90
5576;DHT22;2810;50.134;8.626;2022-12-10T01:53:48;0.80;99.90
5576;DHT22;2810;50.134;8.626;2022-12-10T01:56:15;0.70;99.90
5576;DHT22;2810;50.134;8.626;2022-12-10T01:58:41;0.70;99.90
5576;DHT22;2810;50.134;8.626;2022-12-10T02:01:11;1.00;99.90
5576;DHT22;2810;50.134;8.626;2022-12-10T02:03:41;0.60;99.90
5576;DHT22;2810;50.134;8.626;2022-12-10T02:06:15;0.60;99.90
5576;DHT22;2810;50.134;8.626;2022-12-10T02:09:04;0.60;99.90
5576;DHT22;2810;50.134;8.626;2022-12-10T02:11:37;0.60;99.90
5576;DHT22;2810;50.134;8.626;2022-12-10T02:14:19;0.60;99.90
5576;DHT22;2810;50.134;8.626;2022-12-10T02:16:50;0.60;99.90
5576;DHT22;2810;50.134;8.626;2022-12-10T02:19:39;0.60;99.90
5576;DHT22;2810;50.134;8.626;2022-12-10T02:22:05;0.50;99.90
5576;DHT22;2810;50.134;8.626;2022-12-10T02:24:32;0.50;99.90
5576;DHT22;2810;50.134;8.626;2022-12-10T02:27:06;0.50;99.90
5576;DHT22;2810;50.134;8.626;2022-12-10T02:29:33;0.40;99.90
5576;DHT22;2810;50.134;8.626;2022-12-10T02:32:10;1.10;99.90
5576;DHT22;2810;50.134;8.626;2022-12-10T02:34:39;0.30;99.90
5576;DHT22;2810;50.134;8.626;2022-12-10T02:37:06;0.30;99.90
5576;DHT22;2810;50.134;8.626;2022-12-10T02:39:35;0.20;99.90
5576;DHT22;2810;50.134;8.626;2022-12-10T02:42:03;0.20;99.90
5576;DHT22;2810;50.134;8.626;2022-12-10T02:44:29;0.10;99.90
5576;DHT22;2810;50.134;8.626;2022-12-10T02:46:55;0.10;99.90
5576;DHT22;2810;50.134;8.626;2022-12-10T02:49:21;0.10;99.90
5576;DHT22;2810;50.134;8.626;2022-12-10T02:51:47;0.10;99.90
5576;DHT22;2810;50.134;8.626;2022-12-10T02:54:33;0.10;99.90
5576;DHT22;2810;50.134;8.626;2022-12-10T02:57:00;0.10;99.90
5576;DHT22;2810;50.134;8.626;2022-12-10T02:59:35;0.10;99.90
5576;DHT22;2810;50.134;8.626;2022-12-10T03:04:38;0.00;99.90
5576;DHT22;2810;50.134;8.626;2022-12-10T03:07:13;0.00;99.90
5576;DHT22;2810;50.134;8.626;2022-12-10T03:09:51;0.00;99.90
5576;DHT22;2810;50.134;8.626;2022-12-10T03:12:19;-0.20;99.90
5576;DHT22;2810;50.134;8.626;2022-12-10T03:14:47;-0.10;99.90
5576;DHT22;2810;50.134;8.626;2022-12-10T03:17:13;-0.10;99.90
5576;DHT22;2810;50.134;8.626;2022-12-10T03:19:40;-0.20;99.90
5576;DHT22;2810;50.134;8.626;2022-12-10T03:22:07;-0.20;99.90
5576;DHT22;2810;50.134;8.626;2022-12-10T03:24:33;-0.20;99.90
5576;DHT22;2810;50.134;8.626;2022-12-10T03:27:00;-0.20;99.90
5576;DHT22;2810;50.134;8.626;2022-12-10T03:29:27;-0.30;99.90
5576;DHT22;2810;50.134;8.626;2022-12-10T03:31:53;-0.30;99.90
5576;DHT22;2810;50.134;8.626;2022-12-10T03:34:19;-0.40;99.90
5576;DHT22;2810;50.134;8.626;2022-12-10T03:36:45;-0.40;99.90
5576;DHT22;2810;50.134;8.626;2022-12-10T03:39:11;-0.40;99.90
5576;DHT22;2810;50.134;8.626;2022-12-10T03:41:37;-0.40;99.90
5576;DHT22;2810;50.134;8.626;2022-12-10T03:44:03;-0.40;99.90
5576;DHT22;2810;50.134;8.626;2022-12-10T03:46:29;-0.40;99.90
5576;DHT22;2810;50.134;8.626;2022-12-10T03:48:55;-0.40;99.90
5576;DHT22;2810;50.134;8.626;2022-12-10T03:51:21;-0.40;99.90
5576;DHT22;2810;50.134;8.626;2022-12-10T03:53:46;-0.50;99.90
5576;DHT22;2810;50.134;8.626;2022-12-10T03:56:14;-0.50;99.90
5576;DHT22;2810;50.134;8.626;2022-12-10T03:58:39;0.30;99.90
5576;DHT22;2810;50.134;8.626;2022-12-10T04:01:05;-0.50;99.90
5576;DHT22;2810;50.134;8.626;2022-12-10T04:03:33;-0.50;99.90
5576;DHT22;2810;50.134;8.626;2022-12-10T04:06:12;0.20;99.90
5576;DHT22;2810;50.134;8.626;2022-12-10T04:08:38;-0.60;99.90
5576;DHT22;2810;50.134;8.626;2022-12-10T04:11:04;-0.50;99.90
5576;DHT22;2810;50.134;8.626;2022-12-10T04:13:31;0.10;99.90
5576;DHT22;2810;50.134;8.626;2022-12-10T04:16:14;-0.60;99.90
5576;DHT22;2810;50.134;8.626;2022-12-10T04:18:53;-0.60;99.90
5576;DHT22;2810;50.134;8.626;2022-12-10T04:21:18;-0.60;99.90
5576;DHT22;2810;50.134;8.626;2022-12-10T04:24:02;0.20;99.90
5576;DHT22;2810;50.134;8.626;2022-12-10T04:26:47;-0.60;99.90
5576;DHT22;2810;50.134;8.626;2022-12-10T04:29:28;0.10;99.90
5576;DHT22;2810;50.134;8.626;2022-12-10T04:31:54;-0.60;99.90
5576;DHT22;2810;50.134;8.626;2022-12-10T04:34:19;-0.60;99.90
5576;DHT22;2810;50.134;8.626;2022-12-10T04:36:45;-0.60;99.90
5576;DHT22;2810;50.134;8.626;2022-12-10T04:39:10;0.00;99.90
5576;DHT22;2810;50.134;8.626;2022-12-10T04:41:39;-0.60;99.90
5576;DHT22;2810;50.134;8.626;2022-12-10T04:44:04;-0.70;99.90
5576;DHT22;2810;50.134;8.626;2022-12-10T04:46:30;-0.70;99.90
5576;DHT22;2810;50.134;8.626;2022-12-10T04:48:55;-0.60;99.90
5576;DHT22;2810;50.134;8.626;2022-12-10T04:51:20;-0.70;99.90
5576;DHT22;2810;50.134;8.626;2022-12-10T04:53:46;-0.80;99.90
5576;DHT22;2810;50.134;8.626;2022-12-10T04:56:11;-0.80;99.90
5576;DHT22;2810;50.134;8.626;2022-12-10T04:58:37;-0.80;99.90
5576;DHT22;2810;50.134;8.626;2022-12-10T05:01:06;-0.10;99.90
5576;DHT22;2810;50.134;8.626;2022-12-10T05:03:32;-0.20;99.90
5576;DHT22;2810;50.134;8.626;2022-12-10T05:06:02;-0.90;99.90
5576;DHT22;2810;50.134;8.626;2022-12-10T05:08:27;-0.90;99.90
5576;DHT22;2810;50.134;8.626;2022-12-10T05:10:53;-0.90;99.90
5576;DHT22;2810;50.134;8.626;2022-12-10T05:13:18;-0.80;99.90
5576;DHT22;2810;50.134;8.626;2022-12-10T05:15:44;-0.20;99.90
5576;DHT22;2810;50.134;8.626;2022-12-10T05:18:09;-0.20;99.90
5576;DHT22;2810;50.134;8.626;2022-12-10T05:20:34;-0.90;99.90
5576;DHT22;2810;50.134;8.626;2022-12-10T05:23:00;-0.90;99.90
5576;DHT22;2810;50.134;8.626;2022-12-10T05:25:44;-0.10;99.90
5576;DHT22;2810;50.134;8.626;2022-12-10T05:28:23;-0.90;99.90
5576;DHT22;2810;50.134;8.626;2022-12-10T05:30:49;-0.90;99.90
5576;DHT22;2810;50.134;8.626;2022-12-10T05:33:15;-0.90;99.90
5576;DHT22;2810;50.134;8.626;2022-12-10T05:35:40;-0.20;99.90
5576;DHT22;2810;50.134;8.626;2022-12-10T05:38:06;-0.40;99.90
5576;DHT22;2810;50.134;8.626;2022-12-10T05:40:35;-1.10;99.90
5576;DHT22;2810;50.134;8.626;2022-12-10T05:43:00;-1.10;99.90
5576;DHT22;2810;50.134;8.626;2022-12-10T05:45:26;-1.10;99.90
5576;DHT22;2810;50.134;8.626;2022-12-10T05:47:52;-1.20;99.90
5576;DHT22;2810;50.134;8.626;2022-12-10T05:50:17;-1.20;99.90
5576;DHT22;2810;50.134;8.626;2022-12-10T05:52:42;-1.20;99.90
5576;DHT22;2810;50.134;8.626;2022-12-10T05:55:08;-1.30;99.90
5576;DHT22;2810;50.134;8.626;2022-12-10T05:57:35;-1.20;99.90
5576;DHT22;2810;50.134;8.626;2022-12-10T06:00:00;-1.20;99.90
5576;DHT22;2810;50.134;8.626;2022-12-10T06:02:26;-1.20;99.90
5576;DHT22;2810;50.134;8.626;2022-12-10T06:04:51;-1.10;99.90
5576;DHT22;2810;50.134;8.626;2022-12-10T06:07:17;-1.00;99.90
5576;DHT22;2810;50.134;8.626;2022-12-10T06:09:42;-1.00;99.90
5576;DHT22;2810;50.134;8.626;2022-12-10T06:12:08;-0.90;99.90
5576;DHT22;2810;50.134;8.626;2022-12-10T06:14:33;-0.80;99.90
5576;DHT22;2810;50.134;8.626;2022-12-10T06:16:59;-0.80;99.90
5576;DHT22;2810;50.134;8.626;2022-12-10T06:19:24;-0.80;99.90
5576;DHT22;2810;50.134;8.626;2022-12-10T06:21:50;-0.80;99.90
5576;DHT22;2810;50.134;8.626;2022-12-10T06:24:15;-0.80;99.90
5576;DHT22;2810;50.134;8.626;2022-12-10T06:26:41;-0.70;99.90
5576;DHT22;2810;50.134;8.626;2022-12-10T06:29:06;-0.70;99.90
5576;DHT22;2810;50.134;8.626;2022-12-10T06:31:32;-0.70;99.90
5576;DHT22;2810;50.134;8.626;2022-12-10T06:33:57;-0.60;99.90
5576;DHT22;2810;50.134;8.626;2022-12-10T06:36:22;-0.60;99.90
5576;DHT22;2810;50.134;8.626;2022-12-10T06:38:48;0.30;99.90
5576;DHT22;2810;50.134;8.626;2022-12-10T06:41:14;-0.40;99.90
5576;DHT22;2810;50.134;8.626;2022-12-10T06:43:40;-0.40;99.90
5576;DHT22;2810;50.134;8.626;2022-12-10T06:46:13;-0.30;99.90
5576;DHT22;2810;50.134;8.626;2022-12-10T06:48:39;-0.30;99.90
5576;DHT22;2810;50.134;8.626;2022-12-10T06:51:05;-0.30;99.90
5576;DHT22;2810;50.134;8.626;2022-12-10T06:53:31;0.50;99.90
5576;DHT22;2810;50.134;8.626;2022-12-10T06:55:58;-0.10;99.90
5576;DHT22;2810;50.134;8.626;2022-12-10T06:58:23;0.00;99.90
5576;DHT22;2810;50.134;8.626;2022-12-10T07:00:49;0.30;99.90
5576;DHT22;2810;50.134;8.626;2022-12-10T07:03:14;0.00;99.90
5576;DHT22;2810;50.134;8.626;2022-12-10T07:05:40;0.10;99.90
5576;DHT22;2810;50.134;8.626;2022-12-10T07:08:05;0.00;99.90
5576;DHT22;2810;50.134;8.626;2022-12-10T07:10:30;0.00;99.90
5576;DHT22;2810;50.134;8.626;2022-12-10T07:12:56;0.00;99.90
5576;DHT22;2810;50.134;8.626;2022-12-10T07:15:21;0.10;99.90
5576;DHT22;2810;50.134;8.626;2022-12-10T07:17:50;0.10;99.90
5576;DHT22;2810;50.134;8.626;2022-12-10T07:20:15;0.10;99.90
5576;DHT22;2810;50.134;8.626;2022-12-10T07:22:41;0.20;99.90
5576;DHT22;2810;50.134;8.626;2022-12-10T07:25:06;0.20;99.90
5576;DHT22;2810;50.134;8.626;2022-12-10T07:27:32;0.20;99.90
5576;DHT22;2810;50.134;8.626;2022-12-10T07:29:57;0.20;99.90
5576;DHT22;2810;50.134;8.626;2022-12-10T07:32:23;0.20;99.90
5576;DHT22;2810;50.134;8.626;2022-12-10T07:34:48;0.20;99.90
5576;DHT22;2810;50.134;8.626;2022-12-10T07:37:14;0.30;99.90
5576;DHT22;2810;50.134;8.626;2022-12-10T07:39:39;0.30;99.90
5576;DHT22;2810;50.134;8.626;2022-12-10T07:42:05;0.50;99.90
5576;DHT22;2810;50.134;8.626;2022-12-10T07:44:30;0.50;99.90
5576;DHT22;2810;50.134;8.626;2022-12-10T07:46:56;0.50;99.90
5576;DHT22;2810;50.134;8.626;2022-12-10T07:49:22;0.60;99.90
5576;DHT22;2810;50.134;8.626;2022-12-10T07:51:48;0.60;99.90
5576;DHT22;2810;50.134;8.626;2022-12-10T07:54:13;0.70;99.90
5576;DHT22;2810;50.134;8.626;2022-12-10T07:56:39;0.70;99.90
5576;DHT22;2810;50.134;8.626;2022-12-10T07:59:04;1.50;99.90
5576;DHT22;2810;50.134;8.626;2022-12-10T08:01:30;1.50;99.90
5576;DHT22;2810;50.134;8.626;2022-12-10T08:03:56;1.20;99.90
5576;DHT22;2810;50.134;8.626;2022-12-10T08:06:22;0.90;99.90
5576;DHT22;2810;50.134;8.626;2022-12-10T08:08:49;0.90;99.90
5576;DHT22;2810;50.134;8.626;2022-12-10T08:11:14;1.00;99.90
5576;DHT22;2810;50.134;8.626;2022-12-10T08:13:40;1.10;99.90
5576;DHT22;2810;50.134;8.626;2022-12-10T08:16:07;1.40;99.90
5576;DHT22;2810;50.134;8.626;2022-12-10T08:18:33;1.10;99.90
5576;DHT22;2810;50.134;8.626;2022-12-10T08:21:03;2.00;99.90
5576;DHT22;2810;50.134;8.626;2022-12-10T08:23:28;1.20;99.90
5576;DHT22;2810;50.134;8.626;2022-12-10T08:25:54;1.30;99.90
5576;DHT22;2810;50.134;8.626;2022-12-10T08:28:19;1.30;99.90
5576;DHT22;2810;50.134;8.626;2022-12-10T08:30:45;1.30;99.90
5576;DHT22;2810;50.134;8.626;2022-12-10T08:33:11;1.40;99.90
5576;DHT22;2810;50.134;8.626;2022-12-10T08:35:37;1.40;99.90
5576;DHT22;2810;50.134;8.626;2022-12-10T08:38:02;1.40;99.90
5576;DHT22;2810;50.134;8.626;2022-12-10T08:40:28;1.50;99.90
5576;DHT22;2810;50.134;8.626;2022-12-10T08:42:53;1.50;99.90
5576;DHT22;2810;50.134;8.626;2022-12-10T08:45:19;1.60;99.90
5576;DHT22;2810;50.134;8.626;2022-12-10T08:47:44;1.80;99.90
5576;DHT22;2810;50.134;8.626;2022-12-10T08:50:10;2.00;99.90
5576;DHT22;2810;50.134;8.626;2022-12-10T08:52:35;2.20;99.90
5576;DHT22;2810;50.134;8.626;2022-12-10T08:55:00;2.40;99.90
5576;DHT22;2810;50.134;8.626;2022-12-10T08:57:26;2.60;99.90
5576;DHT22;2810;50.134;8.626;2022-12-10T08:59:51;2.80;99.90
5576;DHT22;2810;50.134;8.626;2022-12-10T09:02:17;2.90;99.90
5576;DHT22;2810;50.134;8.626;2022-12-10T09:04:42;2.90;99.90
5576;DHT22;2810;50.134;8.626;2022-12-10T09:07:08;2.90;99.90
5576;DHT22;2810;50.134;8.626;2022-12-10T09:09:33;2.90;99.90
5576;DHT22;2810;50.134;8.626;2022-12-10T09:11:59;2.90;99.90
5576;DHT22;2810;50.134;8.626;2022-12-10T09:14:24;3.00;99.90
5576;DHT22;2810;50.134;8.626;2022-12-10T09:16:50;3.00;99.90
5576;DHT22;2810;50.134;8.626;2022-12-10T09:19:15;3.00;99.90
5576;DHT22;2810;50.134;8.626;2022-12-10T09:21:41;3.00;99.90
5576;DHT22;2810;50.134;8.626;2022-12-10T09:24:06;3.00;99.90
5576;DHT22;2810;50.134;8.626;2022-12-10T09:26:32;3.00;99.90
5576;DHT22;2810;50.134;8.626;2022-12-10T09:28:57;3.00;99.90
5576;DHT22;2810;50.134;8.626;2022-12-10T09:31:26;3.00;99.90
5576;DHT22;2810;50.134;8.626;2022-12-10T09:33:52;3.00;99.90
5576;DHT22;2810;50.134;8.626;2022-12-10T09:36:17;2.90;99.90
5576;DHT22;2810;50.134;8.626;2022-12-10T09:38:43;3.00;99.90
5576;DHT22;2810;50.134;8.626;2022-12-10T09:46:11;2.90;99.90
5576;DHT22;2810;50.134;8.626;2022-12-10T09:48:47;2.90;99.90
5576;DHT22;2810;50.134;8.626;2022-12-10T09:53:44;2.90;99.90
5576;DHT22;2810;50.134;8.626;2022-12-10T09:56:18;2.40;99.90
5576;DHT22;2810;50.134;8.626;2022-12-10T09:58:44;2.80;99.90
5576;DHT22;2810;50.134;8.626;2022-12-10T10:01:10;2.80;99.90
5576;DHT22;2810;50.134;8.626;2022-12-10T10:03:38;2.80;99.90
5576;DHT22;2810;50.134;8.626;2022-12-10T10:06:05;2.90;99.90
5576;DHT22;2810;50.134;8.626;2022-12-10T10:08:35;2.90;99.90
5576;DHT22;2810;50.134;8.626;2022-12-10T10:11:03;3.00;99.90
5576;DHT22;2810;50.134;8.626;2022-12-10T10:18:39;3.20;99.90
5576;DHT22;2810;50.134;8.626;2022-12-10T10:21:07;3.20;99.90
5576;DHT22;2810;50.134;8.626;2022-12-10T10:23:36;3.20;99.90
5576;DHT22;2810;50.134;8.626;2022-12-10T10:26:02;3.20;99.90
5576;DHT22;2810;50.134;8.626;2022-12-10T10:28:27;3.20;99.90
5576;DHT22;2810;50.134;8.626;2022-12-10T10:30:53;3.20;99.90
5576;DHT22;2810;50.134;8.626;2022-12-10T10:33:21;3.30;99.90
5576;DHT22;2810;50.134;8.626;2022-12-10T10:35:48;3.30;99.90
5576;DHT22;2810;50.134;8.626;2022-12-10T10:38:16;3.30;99.90
5576;DHT22;2810;50.134;8.626;2022-12-10T10:40:44;3.40;99.90
5576;DHT22;2810;50.134;8.626;2022-12-10T10:45:53;3.40;99.90
5576;DHT22;2810;50.134;8.626;2022-12-10T10:48:20;3.40;99.90
5576;DHT22;2810;50.134;8.626;2022-12-10T10:50:48;3.40;99.90
5576;DHT22;2810;50.134;8.626;2022-12-10T10:53:27;3.40;99.90
5576;DHT22;2810;50.134;8.626;2022-12-10T10:55:54;3.40;99.90
5576;DHT22;2810;50.134;8.626;2022-12-10T10:58:20;3.40;99.90
5576;DHT22;2810;50.134;8.626;2022-12-10T11:00:53;3.50;99.90
5576;DHT22;2810;50.134;8.626;2022-12-10T11:03:19;3.60;99.90
5576;DHT22;2810;50.134;8.626;2022-12-10T11:05:46;3.80;99.90
5576;DHT22;2810;50.134;8.626;2022-12-10T11:08:16;3.90;99.90
5576;DHT22;2810;50.134;8.626;2022-12-10T11:10:50;3.90;99.90
5576;DHT22;2810;50.134;8.626;2022-12-10T11:13:20;3.90;99.90
5576;DHT22;2810;50.134;8.626;2022-12-10T11:15:53;3.80;99.90
5576;DHT22;2810;50.134;8.626;2022-12-10T11:18:25;3.90;99.90
5576;DHT22;2810;50.134;8.626;2022-12-10T11:21:09;3.90;99.90
5576;DHT22;2810;50.134;8.626;2022-12-10T11:23:44;3.80;99.90
5576;DHT22;2810;50.134;8.626;2022-12-10T11:26:19;3.70;99.90
5576;DHT22;2810;50.134;8.626;2022-12-10T11:31:45;3.60;99.90
5576;DHT22;2810;50.134;8.626;2022-12-10T11:34:19;3.60;99.90
5576;DHT22;2810;50.134;8.626;2022-12-10T11:39:56;3.70;99.90
5576;DHT22;2810;50.134;8.626;2022-12-10T11:44:58;3.70;99.90
5576;DHT22;2810;50.134;8.626;2022-12-10T11:47:29;3.70;99.90
5576;DHT22;2810;50.134;8.626;2022-12-10T11:57:47;3.90;99.90
5576;DHT22;2810;50.134;8.626;2022-12-10T12:00:24;4.00;99.90
5576;DHT22;2810;50.134;8.626;2022-12-10T12:02:54;4.20;99.90
5576;DHT22;2810;50.134;8.626;2022-12-10T12:08:02;4.90;99.90
5576;DHT22;2810;50.134;8.626;2022-12-10T12:13:02;5.70;99.90
5576;DHT22;2810;50.134;8.626;2022-12-10T12:15:32;5.70;99.90
5576;DHT22;2810;50.134;8.626;2022-12-10T12:18:03;5.40;99.90
5576;DHT22;2810;50.134;8.626;2022-12-10T12:21:12;5.20;99.90
5576;DHT22;2810;50.134;8.626;2022-12-10T12:23:23;4.80;99.90
5576;DHT22;2810;50.134;8.626;2022-12-10T12:25:51;4.70;99.90
5576;DHT22;2810;50.134;8.626;2022-12-10T12:28:22;4.70;99.90
5576;DHT22;2810;50.134;8.626;2022-12-10T12:31:03;4.80;99.90
5576;DHT22;2810;50.134;8.626;2022-12-10T12:33:41;5.00;99.90
5576;DHT22;2810;50.134;8.626;2022-12-10T12:36:18;5.20;99.90
5576;DHT22;2810;50.134;8.626;2022-12-10T12:38:56;5.30;99.90
5576;DHT22;2810;50.134;8.626;2022-12-10T12:46:44;4.60;99.90
5576;DHT22;2810;50.134;8.626;2022-12-10T12:51:43;4.40;99.90
5576;DHT22;2810;50.134;8.626;2022-12-10T12:54:11;4.20;99.90
5576;DHT22;2810;50.134;8.626;2022-12-10T13:01:41;4.00;99.90
5576;DHT22;2810;50.134;8.626;2022-12-10T13:04:09;4.20;99.90
5576;DHT22;2810;50.134;8.626;2022-12-10T13:06:36;4.40;99.90
5576;DHT22;2810;50.134;8.626;2022-12-10T13:11:36;4.70;99.90
5576;DHT22;2810;50.134;8.626;2022-12-10T13:22:08;4.40;99.90
5576;DHT22;2810;50.134;8.626;2022-12-10T13:32:19;3.90;99.90
5576;DHT22;2810;50.134;8.626;2022-12-10T13:34:45;3.90;99.90
5576;DHT22;2810;50.134;8.626;2022-12-10T13:37:27;3.70;99.90
5576;DHT22;2810;50.134;8.626;2022-12-10T13:39:59;3.60;99.90
5576;DHT22;2810;50.134;8.626;2022-12-10T13:42:27;3.60;99.90
5576;DHT22;2810;50.134;8.626;2022-12-10T13:47:43;3.50;99.90
5576;DHT22;2810;50.134;8.626;2022-12-10T13:55:28;3.20;99.90
5576;DHT22;2810;50.134;8.626;2022-12-10T13:58:09;3.20;99.90
5576;DHT22;2810;50.134;8.626;2022-12-10T14:08:18;3.20;99.90
5576;DHT22;2810;50.134;8.626;2022-12-10T14:10:45;3.20;99.90
5576;DHT22;2810;50.134;8.626;2022-12-10T14:13:11;3.40;99.90
5576;DHT22;2810;50.134;8.626;2022-12-10T14:15:37;3.20;99.90
5576;DHT22;2810;50.134;8.626;2022-12-10T14:18:09;3.10;99.90
5576;DHT22;2810;50.134;8.626;2022-12-10T14:20:35;3.00;99.90
5576;DHT22;2810;50.134;8.626;2022-12-10T14:23:05;2.80;99.90
5576;DHT22;2810;50.134;8.626;2022-12-10T14:25:50;2.80;99.90
5576;DHT22;2810;50.134;8.626;2022-12-10T14:28:17;2.70;99.90
5576;DHT22;2810;50.134;8.626;2022-12-10T14:30:44;2.60;99.90
5576;DHT22;2810;50.134;8.626;2022-12-10T14:33:10;2.60;99.90
5576;DHT22;2810;50.134;8.626;2022-12-10T14:35:38;2.60;99.90
5576;DHT22;2810;50.134;8.626;2022-12-10T14:38:04;2.60;99.90
5576;DHT22;2810;50.134;8.626;2022-12-10T14:40:31;2.70;99.90
5576;DHT22;2810;50.134;8.626;2022-12-10T14:43:06;2.50;99.90
5576;DHT22;2810;50.134;8.626;2022-12-10T14:45:38;3.30;99.90
5576;DHT22;2810;50.134;8.626;2022-12-10T14:48:06;2.60;99.90
5576;DHT22;2810;50.134;8.626;2022-12-10T14:50:34;2.60;99.90
5576;DHT22;2810;50.134;8.626;2022-12-10T14:53:00;3.20;99.90
5576;DHT22;2810;50.134;8.626;2022-12-10T14:55:25;2.60;99.90
5576;DHT22;2810;50.134;8.626;2022-12-10T14:57:53;2.20;99.90
5576;DHT22;2810;50.134;8.626;2022-12-10T15:00:20;2.40;99.90
5576;DHT22;2810;50.134;8.626;2022-12-10T15:02:47;2.40;99.90
5576;DHT22;2810;50.134;8.626;2022-12-10T15:05:18;2.20;99.90
5576;DHT22;2810;50.134;8.626;2022-12-10T15:07:48;2.10;99.90
5576;DHT22;2810;50.134;8.626;2022-12-10T15:10:17;2.00;99.90
5576;DHT22;2810;50.134;8.626;2022-12-10T15:12:44;2.00;99.90
5576;DHT22;2810;50.134;8.626;2022-12-10T15:15:15;1.90;99.90
5576;DHT22;2810;50.134;8.626;2022-12-10T15:17:43;1.80;99.90
5576;DHT22;2810;50.134;8.626;2022-12-10T15:20:09;1.80;99.90
5576;DHT22;2810;50.134;8.626;2022-12-10T15:22:35;1.70;99.90
5576;DHT22;2810;50.134;8.626;2022-12-10T15:25:12;1.70;99.90
5576;DHT22;2810;50.134;8.626;2022-12-10T15:27:38;1.60;99.90
5576;DHT22;2810;50.134;8.626;2022-12-10T15:30:21;1.60;99.90
5576;DHT22;2810;50.134;8.626;2022-12-10T15:32:47;1.50;99.90
5576;DHT22;2810;50.134;8.626;2022-12-10T15:35:12;2.10;99.90
5576;DHT22;2810;50.134;8.626;2022-12-10T15:37:40;1.50;99.90
5576;DHT22;2810;50.134;8.626;2022-12-10T15:40:07;2.30;99.90
5576;DHT22;2810;50.134;8.626;2022-12-10T15:42:45;1.50;99.90
5576;DHT22;2810;50.134;8.626;2022-12-10T15:45:24;1.50;99.90
5576;DHT22;2810;50.134;8.626;2022-12-10T15:47:51;1.40;99.90
5576;DHT22;2810;50.134;8.626;2022-12-10T15:50:17;1.40;99.90
5576;DHT22;2810;50.134;8.626;2022-12-10T15:52:43;1.30;99.90
5576;DHT22;2810;50.134;8.626;2022-12-10T15:55:10;1.30;99.90
5576;DHT22;2810;50.134;8.626;2022-12-10T15:57:36;1.30;99.90
5576;DHT22;2810;50.134;8.626;2022-12-10T16:00:05;1.20;99.90
5576;DHT22;2810;50.134;8.626;2022-12-10T16:02:45;1.20;99.90
5576;DHT22;2810;50.134;8.626;2022-12-10T16:05:16;1.20;99.90
5576;DHT22;2810;50.134;8.626;2022-12-10T16:07:42;1.10;99.90
5576;DHT22;2810;50.134;8.626;2022-12-10T16:10:09;1.00;99.90
5576;DHT22;2810;50.134;8.626;2022-12-10T16:12:35;1.00;99.90
5576;DHT22;2810;50.134;8.626;2022-12-10T16:15:01;1.00;99.90
5576;DHT22;2810;50.134;8.626;2022-12-10T16:17:27;1.00;99.90
5576;DHT22;2810;50.134;8.626;2022-12-10T16:19:53;0.90;99.90
5576;DHT22;2810;50.134;8.626;2022-12-10T16:22:18;1.00;99.90
5576;DHT22;2810;50.134;8.626;2022-12-10T16:24:44;1.60;99.90
5576;DHT22;2810;50.134;8.626;2022-12-10T16:27:11;0.90;99.90
5576;DHT22;2810;50.134;8.626;2022-12-10T16:29:37;1.00;99.90
5576;DHT22;2810;50.134;8.626;2022-12-10T16:32:02;0.90;99.90
5576;DHT22;2810;50.134;8.626;2022-12-10T16:34:28;0.90;99.90
5576;DHT22;2810;50.134;8.626;2022-12-10T16:36:53;0.90;99.90
5576;DHT22;2810;50.134;8.626;2022-12-10T16:39:19;0.90;99.90
5576;DHT22;2810;50.134;8.626;2022-12-10T16:41:44;0.80;99.90
5576;DHT22;2810;50.134;8.626;2022-12-10T16:44:16;1.50;99.90
5576;DHT22;2810;50.134;8.626;2022-12-10T16:46:41;0.70;99.90
5576;DHT22;2810;50.134;8.626;2022-12-10T16:49:06;0.70;99.90
5576;DHT22;2810;50.134;8.626;2022-12-10T16:51:32;0.60;99.90
5576;DHT22;2810;50.134;8.626;2022-12-10T16:53:57;1.00;99.90
5576;DHT22;2810;50.134;8.626;2022-12-10T16:56:23;0.40;99.90
5576;DHT22;2810;50.134;8.626;2022-12-10T16:58:48;0.30;99.90
5576;DHT22;2810;50.134;8.626;2022-12-10T17:01:21;0.30;99.90
5576;DHT22;2810;50.134;8.626;2022-12-10T17:03:47;0.20;99.90
5576;DHT22;2810;50.134;8.626;2022-12-10T17:06:13;0.10;99.90
5576;DHT22;2810;50.134;8.626;2022-12-10T17:08:38;0.10;99.90
5576;DHT22;2810;50.134;8.626;2022-12-10T17:11:09;0.10;99.90
5576;DHT22;2810;50.134;8.626;2022-12-10T17:13:56;0.00;99.90
5576;DHT22;2810;50.134;8.626;2022-12-10T17:16:22;-0.10;99.90
5576;DHT22;2810;50.134;8.626;2022-12-10T17:18:47;-0.10;99.90
5576;DHT22;2810;50.134;8.626;2022-12-10T17:21:13;0.00;99.90
5576;DHT22;2810;50.134;8.626;2022-12-10T17:23:38;-0.10;99.90
5576;DHT22;2810;50.134;8.626;2022-12-10T17:26:04;-0.10;99.90
5576;DHT22;2810;50.134;8.626;2022-12-10T17:28:30;-0.10;99.90
5576;DHT22;2810;50.134;8.626;2022-12-10T17:30:55;-0.30;99.90
5576;DHT22;2810;50.134;8.626;2022-12-10T17:33:22;-0.10;99.90
5576;DHT22;2810;50.134;8.626;2022-12-10T17:35:48;-0.10;99.90
5576;DHT22;2810;50.134;8.626;2022-12-10T17:38:15;0.10;99.90
5576;DHT22;2810;50.134;8.626;2022-12-10T17:40:41;0.30;99.90
5576;DHT22;2810;50.134;8.626;2022-12-10T17:43:07;0.80;99.90
5576;DHT22;2810;50.134;8.626;2022-12-10T17:45:32;0.60;99.90